sensor_id;sensor_type;location;lat;lon;timestamp;pressure;altitude;pressure_sealevel;temperature;humidity
48810;BME280;40070;47.322;18.784;2023-02-15T00:00:20;1020.34;;;2.62;65.16
48810;BME280;40070;47.322;18.784;2023-02-15T00:02:23;1020.35;;;2.68;65.56
48810;BME280;40070;47.322;18.784;2023-02-15T00:04:25;1020.36;;;2.83;65.11
48810;BME280;40070;47.322;18.784;2023-02-15T00:06:28;1020.35;;;2.92;64.37
48810;BME280;40070;47.322;18.784;2023-02-15T00:08:31;1020.29;;;2.93;63.99
48810;BME280;40070;47.322;18.784;2023-02-15T00:10:33;1020.34;;;3.05;63.51
48810;BME280;40070;47.322;18.784;2023-02-15T00:12:36;1020.38;;;3.09;62.88
48810;BME280;40070;47.322;18.784;2023-02-15T00:14:38;1020.36;;;2.89;64.03
48810;BME280;40070;47.322;18.784;2023-02-15T00:16:41;1020.37;;;2.74;65.22
48810;BME280;40070;47.322;18.784;2023-02-15T00:18:44;1020.40;;;2.83;65.06
48810;BME280;40070;47.322;18.784;2023-02-15T00:20:46;1020.43;;;2.73;64.66
48810;BME280;40070;47.322;18.784;2023-02-15T00:22:49;1020.43;;;2.87;64.23
48810;BME280;40070;47.322;18.784;2023-02-15T00:24:51;1020.40;;;2.74;64.13
48810;BME280;40070;47.322;18.784;2023-02-15T00:26:53;1020.42;;;2.81;63.68
48810;BME280;40070;47.322;18.784;2023-02-15T00:28:56;1020.41;;;2.87;62.98
48810;BME280;40070;47.322;18.784;2023-02-15T00:31:08;1020.44;;;2.57;63.19
48810;BME280;40070;47.322;18.784;2023-02-15T00:33:11;1020.43;;;2.55;63.48
48810;BME280;40070;47.322;18.784;2023-02-15T00:35:13;1020.42;;;2.58;63.08
48810;BME280;40070;47.322;18.784;2023-02-15T00:37:15;1020.37;;;2.65;62.46
48810;BME280;40070;47.322;18.784;2023-02-15T00:39:18;1020.37;;;2.64;62.38
48810;BME280;40070;47.322;18.784;2023-02-15T00:41:20;1020.31;;;2.46;62.88
48810;BME280;40070;47.322;18.784;2023-02-15T00:43:23;1020.30;;;2.32;63.17
48810;BME280;40070;47.322;18.784;2023-02-15T00:45:25;1020.28;;;2.28;63.20
48810;BME280;40070;47.322;18.784;2023-02-15T00:47:28;1020.31;;;2.31;63.23
48810;BME280;40070;47.322;18.784;2023-02-15T00:49:30;1020.23;;;2.29;63.07
48810;BME280;40070;47.322;18.784;2023-02-15T00:51:32;1020.27;;;2.36;62.94
48810;BME280;40070;47.322;18.784;2023-02-15T00:53:35;1020.25;;;2.20;63.34
48810;BME280;40070;47.322;18.784;2023-02-15T00:55:37;1020.27;;;2.29;63.15
48810;BME280;40070;47.322;18.784;2023-02-15T00:57:39;1020.30;;;2.37;62.88
48810;BME280;40070;47.322;18.784;2023-02-15T00:59:42;1020.31;;;2.51;62.27
48810;BME280;40070;47.322;18.784;2023-02-15T01:01:44;1020.33;;;2.24;63.01
48810;BME280;40070;47.322;18.784;2023-02-15T01:03:47;1020.33;;;2.32;62.85
48810;BME280;40070;47.322;18.784;2023-02-15T01:05:49;1020.26;;;2.28;62.83
48810;BME280;40070;47.322;18.784;2023-02-15T01:07:51;1020.23;;;2.15;63.21
48810;BME280;40070;47.322;18.784;2023-02-15T01:09:54;1020.26;;;2.16;63.23
48810;BME280;40070;47.322;18.784;2023-02-15T01:11:56;1020.26;;;2.17;63.23
48810;BME280;40070;47.322;18.784;2023-02-15T01:13:58;1020.27;;;2.26;62.67
48810;BME280;40070;47.322;18.784;2023-02-15T01:16:01;1020.27;;;2.25;62.80
48810;BME280;40070;47.322;18.784;2023-02-15T01:18:03;1020.27;;;2.25;62.18
48810;BME280;40070;47.322;18.784;2023-02-15T01:20:06;1020.24;;;2.18;62.47
48810;BME280;40070;47.322;18.784;2023-02-15T01:22:08;1020.24;;;1.98;63.05
48810;BME280;40070;47.322;18.784;2023-02-15T01:24:12;1020.23;;;2.05;63.12
48810;BME280;40070;47.322;18.784;2023-02-15T01:26:14;1020.18;;;1.90;63.88
48810;BME280;40070;47.322;18.784;2023-02-15T01:28:17;1020.19;;;2.14;63.60
48810;BME280;40070;47.322;18.784;2023-02-15T01:30:19;1020.12;;;2.06;63.71
48810;BME280;40070;47.322;18.784;2023-02-15T01:32:22;1020.07;;;2.07;63.58
48810;BME280;40070;47.322;18.784;2023-02-15T01:34:24;1020.06;;;1.95;63.72
48810;BME280;40070;47.322;18.784;2023-02-15T01:36:27;1020.07;;;1.77;64.24
48810;BME280;40070;47.322;18.784;2023-02-15T01:38:29;1020.05;;;1.84;64.14
48810;BME280;40070;47.322;18.784;2023-02-15T01:40:32;1020.01;;;1.69;64.43
48810;BME280;40070;47.322;18.784;2023-02-15T01:42:34;1020.02;;;1.64;64.16
48810;BME280;40070;47.322;18.784;2023-02-15T01:44:47;1020.00;;;1.86;63.75
48810;BME280;40070;47.322;18.784;2023-02-15T01:46:50;1019.96;;;1.81;63.67
48810;BME280;40070;47.322;18.784;2023-02-15T01:48:56;1019.93;;;1.91;63.75
48810;BME280;40070;47.322;18.784;2023-02-15T01:51:00;1019.89;;;1.75;64.11
48810;BME280;40070;47.322;18.784;2023-02-15T01:53:17;1019.86;;;1.84;64.24
48810;BME280;40070;47.322;18.784;2023-02-15T01:55:22;1019.89;;;1.82;64.12
48810;BME280;40070;47.322;18.784;2023-02-15T01:57:26;1019.88;;;1.89;63.90
48810;BME280;40070;47.322;18.784;2023-02-15T01:59:29;1019.86;;;1.88;63.68
48810;BME280;40070;47.322;18.784;2023-02-15T02:01:33;1019.88;;;1.79;63.80
48810;BME280;40070;47.322;18.784;2023-02-15T02:03:38;1019.86;;;1.71;64.07
48810;BME280;40070;47.322;18.784;2023-02-15T02:05:44;1019.88;;;1.89;63.48
48810;BME280;40070;47.322;18.784;2023-02-15T02:07:46;1019.88;;;1.84;63.57
48810;BME280;40070;47.322;18.784;2023-02-15T02:09:50;1019.86;;;1.72;63.70
48810;BME280;40070;47.322;18.784;2023-02-15T02:11:53;1019.86;;;1.73;63.50
48810;BME280;40070;47.322;18.784;2023-02-15T02:13:56;1019.84;;;1.69;63.77
48810;BME280;40070;47.322;18.784;2023-02-15T02:16:00;1019.87;;;1.60;64.04
48810;BME280;40070;47.322;18.784;2023-02-15T02:22:49;1019.82;;;1.58;64.12
48810;BME280;40070;47.322;18.784;2023-02-15T02:25:02;1019.86;;;1.61;63.87
48810;BME280;40070;47.322;18.784;2023-02-15T02:27:29;1019.85;;;1.63;63.68
48810;BME280;40070;47.322;18.784;2023-02-15T02:29:33;1019.83;;;1.60;63.90
48810;BME280;40070;47.322;18.784;2023-02-15T02:34:05;1019.81;;;1.67;63.51
48810;BME280;40070;47.322;18.784;2023-02-15T02:38:29;1019.79;;;1.54;63.94
48810;BME280;40070;47.322;18.784;2023-02-15T02:40:41;1019.82;;;1.62;63.90
48810;BME280;40070;47.322;18.784;2023-02-15T02:42:55;1019.87;;;1.41;64.14
48810;BME280;40070;47.322;18.784;2023-02-15T02:47:23;1019.89;;;1.56;63.97
48810;BME280;40070;47.322;18.784;2023-02-15T02:49:35;1019.83;;;1.81;63.25
48810;BME280;40070;47.322;18.784;2023-02-15T02:51:38;1019.85;;;1.61;63.73
48810;BME280;40070;47.322;18.784;2023-02-15T02:53:40;1019.86;;;1.58;64.25
48810;BME280;40070;47.322;18.784;2023-02-15T02:55:53;1019.85;;;1.58;64.33
48810;BME280;40070;47.322;18.784;2023-02-15T02:58:05;1019.86;;;1.58;64.34
48810;BME280;40070;47.322;18.784;2023-02-15T03:00:11;1019.92;;;1.61;64.18
48810;BME280;40070;47.322;18.784;2023-02-15T03:02:16;1019.92;;;1.60;64.07
48810;BME280;40070;47.322;18.784;2023-02-15T03:04:24;1019.99;;;1.53;64.27
48810;BME280;40070;47.322;18.784;2023-02-15T03:06:45;1019.94;;;1.70;63.42
48810;BME280;40070;47.322;18.784;2023-02-15T03:08:51;1019.98;;;1.61;63.60
48810;BME280;40070;47.322;18.784;2023-02-15T03:10:56;1020.01;;;1.36;63.78
48810;BME280;40070;47.322;18.784;2023-02-15T03:13:00;1019.99;;;1.17;63.94
48810;BME280;40070;47.322;18.784;2023-02-15T03:15:03;1020.00;;;1.27;63.62
48810;BME280;40070;47.322;18.784;2023-02-15T03:17:06;1020.00;;;1.07;63.86
48810;BME280;40070;47.322;18.784;2023-02-15T03:19:17;1020.00;;;0.96;64.00
48810;BME280;40070;47.322;18.784;2023-02-15T03:21:21;1019.97;;;0.91;64.02
48810;BME280;40070;47.322;18.784;2023-02-15T03:23:26;1020.01;;;0.85;64.49
48810;BME280;40070;47.322;18.784;2023-02-15T03:25:37;1020.03;;;0.93;63.77
48810;BME280;40070;47.322;18.784;2023-02-15T03:27:45;1020.02;;;0.91;63.80
48810;BME280;40070;47.322;18.784;2023-02-15T03:29:50;1020.07;;;0.94;63.79
48810;BME280;40070;47.322;18.784;2023-02-15T03:31:56;1020.08;;;0.92;63.85
48810;BME280;40070;47.322;18.784;2023-02-15T03:34:02;1020.06;;;0.77;64.13
48810;BME280;40070;47.322;18.784;2023-02-15T03:36:41;1020.10;;;0.77;64.27
48810;BME280;40070;47.322;18.784;2023-02-15T03:38:30;1020.09;;;0.81;64.19
48810;BME280;40070;47.322;18.784;2023-02-15T03:40:40;1020.12;;;0.95;63.62
48810;BME280;40070;47.322;18.784;2023-02-15T03:42:44;1020.13;;;0.76;63.94
48810;BME280;40070;47.322;18.784;2023-02-15T03:44:51;1020.10;;;0.72;63.91
48810;BME280;40070;47.322;18.784;2023-02-15T03:46:58;1020.09;;;0.64;64.02
48810;BME280;40070;47.322;18.784;2023-02-15T03:49:57;1020.08;;;0.80;63.72
48810;BME280;40070;47.322;18.784;2023-02-15T03:51:33;1020.05;;;0.62;63.70
48810;BME280;40070;47.322;18.784;2023-02-15T03:53:37;1020.06;;;0.67;63.91
48810;BME280;40070;47.322;18.784;2023-02-15T03:55:40;1020.06;;;0.69;63.73
48810;BME280;40070;47.322;18.784;2023-02-15T03:57:42;1020.02;;;0.63;64.05
48810;BME280;40070;47.322;18.784;2023-02-15T03:59:45;1020.06;;;0.30;65.80
48810;BME280;40070;47.322;18.784;2023-02-15T04:01:54;1020.09;;;0.02;66.69
48810;BME280;40070;47.322;18.784;2023-02-15T04:04:03;1020.11;;;0.29;66.21
48810;BME280;40070;47.322;18.784;2023-02-15T04:06:08;1020.14;;;0.32;66.00
48810;BME280;40070;47.322;18.784;2023-02-15T04:08:10;1020.13;;;0.13;66.32
48810;BME280;40070;47.322;18.784;2023-02-15T04:10:13;1020.13;;;0.43;65.53
48810;BME280;40070;47.322;18.784;2023-02-15T04:12:15;1020.12;;;0.40;65.55
48810;BME280;40070;47.322;18.784;2023-02-15T04:14:18;1020.10;;;0.36;65.77
48810;BME280;40070;47.322;18.784;2023-02-15T04:16:20;1020.06;;;0.53;65.48
48810;BME280;40070;47.322;18.784;2023-02-15T04:18:22;1020.11;;;0.42;65.80
48810;BME280;40070;47.322;18.784;2023-02-15T04:20:25;1020.06;;;0.55;65.70
48810;BME280;40070;47.322;18.784;2023-02-15T04:22:27;1020.07;;;0.67;65.54
48810;BME280;40070;47.322;18.784;2023-02-15T04:24:29;1020.07;;;0.38;66.33
48810;BME280;40070;47.322;18.784;2023-02-15T04:26:32;1020.05;;;0.28;67.10
48810;BME280;40070;47.322;18.784;2023-02-15T04:28:34;1020.04;;;0.59;66.18
48810;BME280;40070;47.322;18.784;2023-02-15T04:30:36;1020.01;;;0.62;65.85
48810;BME280;40070;47.322;18.784;2023-02-15T04:32:39;1020.07;;;0.76;65.62
48810;BME280;40070;47.322;18.784;2023-02-15T04:34:41;1020.09;;;0.83;65.33
48810;BME280;40070;47.322;18.784;2023-02-15T04:36:43;1020.05;;;0.62;65.35
48810;BME280;40070;47.322;18.784;2023-02-15T04:38:46;1020.04;;;0.54;66.10
48810;BME280;40070;47.322;18.784;2023-02-15T04:40:52;1020.08;;;0.62;65.92
48810;BME280;40070;47.322;18.784;2023-02-15T04:42:54;1020.08;;;0.67;65.58
48810;BME280;40070;47.322;18.784;2023-02-15T04:44:56;1020.09;;;0.83;64.82
48810;BME280;40070;47.322;18.784;2023-02-15T04:46:59;1020.08;;;0.77;64.50
48810;BME280;40070;47.322;18.784;2023-02-15T04:49:01;1020.06;;;0.69;64.59
48810;BME280;40070;47.322;18.784;2023-02-15T04:51:07;1020.03;;;0.66;64.60
48810;BME280;40070;47.322;18.784;2023-02-15T04:53:09;1020.04;;;0.68;64.15
48810;BME280;40070;47.322;18.784;2023-02-15T04:55:12;1020.01;;;0.57;64.41
48810;BME280;40070;47.322;18.784;2023-02-15T04:57:14;1020.04;;;0.72;63.80
48810;BME280;40070;47.322;18.784;2023-02-15T04:59:17;1020.00;;;0.69;63.55
48810;BME280;40070;47.322;18.784;2023-02-15T05:01:19;1020.02;;;0.70;63.17
48810;BME280;40070;47.322;18.784;2023-02-15T05:03:22;1020.01;;;0.63;62.96
48810;BME280;40070;47.322;18.784;2023-02-15T05:05:24;1019.99;;;0.64;62.81
48810;BME280;40070;47.322;18.784;2023-02-15T05:07:26;1019.99;;;0.37;63.54
48810;BME280;40070;47.322;18.784;2023-02-15T05:09:29;1020.00;;;0.30;63.64
48810;BME280;40070;47.322;18.784;2023-02-15T05:11:31;1020.01;;;0.14;64.08
48810;BME280;40070;47.322;18.784;2023-02-15T05:13:33;1019.99;;;0.32;63.72
48810;BME280;40070;47.322;18.784;2023-02-15T05:15:36;1019.97;;;0.32;63.83
48810;BME280;40070;47.322;18.784;2023-02-15T05:17:38;1020.07;;;0.19;64.36
48810;BME280;40070;47.322;18.784;2023-02-15T05:19:40;1020.12;;;0.17;64.65
48810;BME280;40070;47.322;18.784;2023-02-15T05:21:43;1020.12;;;0.31;64.31
48810;BME280;40070;47.322;18.784;2023-02-15T05:23:45;1020.17;;;0.23;64.36
48810;BME280;40070;47.322;18.784;2023-02-15T05:25:48;1020.22;;;0.39;63.74
48810;BME280;40070;47.322;18.784;2023-02-15T05:27:50;1020.25;;;0.40;63.45
48810;BME280;40070;47.322;18.784;2023-02-15T05:29:53;1020.26;;;0.42;63.07
48810;BME280;40070;47.322;18.784;2023-02-15T05:31:55;1020.29;;;0.27;63.02
48810;BME280;40070;47.322;18.784;2023-02-15T05:33:57;1020.26;;;-0.03;63.98
48810;BME280;40070;47.322;18.784;2023-02-15T05:36:00;1020.29;;;0.11;64.25
48810;BME280;40070;47.322;18.784;2023-02-15T05:38:02;1020.31;;;0.32;63.81
48810;BME280;40070;47.322;18.784;2023-02-15T05:40:05;1020.32;;;0.46;63.39
48810;BME280;40070;47.322;18.784;2023-02-15T05:42:07;1020.31;;;0.38;63.55
48810;BME280;40070;47.322;18.784;2023-02-15T05:44:10;1020.34;;;0.31;64.01
48810;BME280;40070;47.322;18.784;2023-02-15T05:46:12;1020.40;;;0.23;64.45
48810;BME280;40070;47.322;18.784;2023-02-15T05:48:15;1020.46;;;-0.12;65.54
48810;BME280;40070;47.322;18.784;2023-02-15T05:50:17;1020.47;;;0.19;64.12
48810;BME280;40070;47.322;18.784;2023-02-15T05:52:19;1020.48;;;0.21;64.11
48810;BME280;40070;47.322;18.784;2023-02-15T05:54:22;1020.47;;;0.27;64.40
48810;BME280;40070;47.322;18.784;2023-02-15T05:56:24;1020.48;;;0.14;64.76
48810;BME280;40070;47.322;18.784;2023-02-15T05:58:27;1020.51;;;0.30;64.26
48810;BME280;40070;47.322;18.784;2023-02-15T06:00:29;1020.47;;;0.28;64.22
48810;BME280;40070;47.322;18.784;2023-02-15T06:02:35;1020.50;;;0.47;64.03
48810;BME280;40070;47.322;18.784;2023-02-15T06:04:38;1020.48;;;0.52;64.02
48810;BME280;40070;47.322;18.784;2023-02-15T06:06:40;1020.46;;;0.52;63.98
48810;BME280;40070;47.322;18.784;2023-02-15T06:08:43;1020.51;;;0.38;64.48
48810;BME280;40070;47.322;18.784;2023-02-15T06:10:45;1020.51;;;0.08;65.25
48810;BME280;40070;47.322;18.784;2023-02-15T06:12:48;1020.57;;;-0.08;66.39
48810;BME280;40070;47.322;18.784;2023-02-15T06:14:50;1020.52;;;0.08;66.02
48810;BME280;40070;47.322;18.784;2023-02-15T06:16:53;1020.56;;;0.29;65.59
48810;BME280;40070;47.322;18.784;2023-02-15T06:18:55;1020.56;;;0.39;65.36
48810;BME280;40070;47.322;18.784;2023-02-15T06:20:57;1020.52;;;0.25;65.40
48810;BME280;40070;47.322;18.784;2023-02-15T06:23:00;1020.52;;;0.08;65.82
48810;BME280;40070;47.322;18.784;2023-02-15T06:25:02;1020.57;;;0.43;65.03
48810;BME280;40070;47.322;18.784;2023-02-15T06:27:04;1020.52;;;0.60;64.48
48810;BME280;40070;47.322;18.784;2023-02-15T06:29:07;1020.52;;;0.42;64.65
48810;BME280;40070;47.322;18.784;2023-02-15T06:31:09;1020.53;;;0.53;64.36
48810;BME280;40070;47.322;18.784;2023-02-15T06:33:11;1020.50;;;0.26;65.07
48810;BME280;40070;47.322;18.784;2023-02-15T06:35:14;1020.51;;;0.42;64.82
48810;BME280;40070;47.322;18.784;2023-02-15T06:37:16;1020.53;;;0.53;64.73
48810;BME280;40070;47.322;18.784;2023-02-15T06:39:19;1020.53;;;0.54;64.64
48810;BME280;40070;47.322;18.784;2023-02-15T06:41:21;1020.57;;;0.48;64.63
48810;BME280;40070;47.322;18.784;2023-02-15T06:43:23;1020.57;;;0.58;64.97
48810;BME280;40070;47.322;18.784;2023-02-15T06:45:26;1020.57;;;0.68;64.79
48810;BME280;40070;47.322;18.784;2023-02-15T06:47:28;1020.55;;;0.74;64.91
48810;BME280;40070;47.322;18.784;2023-02-15T06:49:30;1020.55;;;0.70;65.15
48810;BME280;40070;47.322;18.784;2023-02-15T06:51:33;1020.64;;;0.88;65.17
48810;BME280;40070;47.322;18.784;2023-02-15T06:53:35;1020.66;;;0.79;65.70
48810;BME280;40070;47.322;18.784;2023-02-15T06:55:38;1020.66;;;1.02;65.61
48810;BME280;40070;47.322;18.784;2023-02-15T06:57:40;1020.67;;;1.22;65.19
48810;BME280;40070;47.322;18.784;2023-02-15T06:59:42;1020.71;;;1.27;65.36
48810;BME280;40070;47.322;18.784;2023-02-15T07:01:45;1020.71;;;1.42;65.54
48810;BME280;40070;47.322;18.784;2023-02-15T07:03:47;1020.74;;;1.70;64.68
48810;BME280;40070;47.322;18.784;2023-02-15T07:05:54;1020.72;;;1.47;64.84
48810;BME280;40070;47.322;18.784;2023-02-15T07:07:57;1020.72;;;1.69;65.00
48810;BME280;40070;47.322;18.784;2023-02-15T07:10:00;1020.68;;;1.79;64.68
48810;BME280;40070;47.322;18.784;2023-02-15T07:12:02;1020.72;;;1.59;65.27
48810;BME280;40070;47.322;18.784;2023-02-15T07:14:05;1020.65;;;1.77;65.22
48810;BME280;40070;47.322;18.784;2023-02-15T07:16:07;1020.63;;;2.02;64.67
48810;BME280;40070;47.322;18.784;2023-02-15T07:18:10;1020.59;;;2.11;64.74
48810;BME280;40070;47.322;18.784;2023-02-15T07:20:14;1020.64;;;2.20;64.80
48810;BME280;40070;47.322;18.784;2023-02-15T07:22:17;1020.62;;;1.95;65.91
48810;BME280;40070;47.322;18.784;2023-02-15T07:24:19;1020.60;;;2.19;65.82
48810;BME280;40070;47.322;18.784;2023-02-15T07:26:21;1020.57;;;2.24;65.74
48810;BME280;40070;47.322;18.784;2023-02-15T07:28:24;1020.55;;;2.36;65.64
48810;BME280;40070;47.322;18.784;2023-02-15T07:30:27;1020.52;;;2.64;65.38
48810;BME280;40070;47.322;18.784;2023-02-15T07:32:30;1020.55;;;2.49;65.75
48810;BME280;40070;47.322;18.784;2023-02-15T07:34:32;1020.53;;;2.38;66.76
48810;BME280;40070;47.322;18.784;2023-02-15T07:36:35;1020.57;;;2.73;66.01
48810;BME280;40070;47.322;18.784;2023-02-15T07:38:38;1020.53;;;2.86;65.63
48810;BME280;40070;47.322;18.784;2023-02-15T07:40:40;1020.52;;;3.17;64.92
48810;BME280;40070;47.322;18.784;2023-02-15T07:42:42;1020.53;;;3.11;64.91
48810;BME280;40070;47.322;18.784;2023-02-15T07:44:45;1020.54;;;3.11;65.52
48810;BME280;40070;47.322;18.784;2023-02-15T07:46:47;1020.49;;;3.20;65.54
48810;BME280;40070;47.322;18.784;2023-02-15T07:48:50;1020.49;;;3.44;65.28
48810;BME280;40070;47.322;18.784;2023-02-15T07:50:52;1020.40;;;3.50;65.19
48810;BME280;40070;47.322;18.784;2023-02-15T07:52:55;1020.44;;;3.66;65.14
48810;BME280;40070;47.322;18.784;2023-02-15T07:54:57;1020.46;;;3.61;65.17
48810;BME280;40070;47.322;18.784;2023-02-15T07:57:00;1020.50;;;3.75;65.05
48810;BME280;40070;47.322;18.784;2023-02-15T07:59:02;1020.50;;;3.73;65.17
48810;BME280;40070;47.322;18.784;2023-02-15T08:01:05;1020.47;;;4.14;64.80
48810;BME280;40070;47.322;18.784;2023-02-15T08:03:07;1020.50;;;4.30;64.47
48810;BME280;40070;47.322;18.784;2023-02-15T08:05:09;1020.47;;;4.45;64.24
48810;BME280;40070;47.322;18.784;2023-02-15T08:07:12;1020.46;;;4.72;63.72
48810;BME280;40070;47.322;18.784;2023-02-15T08:09:14;1020.44;;;4.91;63.16
48810;BME280;40070;47.322;18.784;2023-02-15T08:11:21;1020.40;;;4.99;63.03
48810;BME280;40070;47.322;18.784;2023-02-15T08:13:23;1020.40;;;4.93;62.74
48810;BME280;40070;47.322;18.784;2023-02-15T08:15:26;1020.39;;;5.00;62.59
48810;BME280;40070;47.322;18.784;2023-02-15T08:17:28;1020.35;;;5.21;62.50
48810;BME280;40070;47.322;18.784;2023-02-15T08:19:31;1020.32;;;5.39;61.98
48810;BME280;40070;47.322;18.784;2023-02-15T08:21:34;1020.33;;;5.37;61.57
48810;BME280;40070;47.322;18.784;2023-02-15T08:23:37;1020.28;;;5.66;61.57
48810;BME280;40070;47.322;18.784;2023-02-15T08:25:40;1020.23;;;5.83;61.16
48810;BME280;40070;47.322;18.784;2023-02-15T08:27:42;1020.22;;;5.88;60.73
48810;BME280;40070;47.322;18.784;2023-02-15T08:29:44;1020.24;;;6.14;60.18
48810;BME280;40070;47.322;18.784;2023-02-15T08:31:47;1020.27;;;6.33;59.79
48810;BME280;40070;47.322;18.784;2023-02-15T08:33:50;1020.27;;;6.35;59.30
48810;BME280;40070;47.322;18.784;2023-02-15T08:35:53;1020.28;;;6.42;59.23
48810;BME280;40070;47.322;18.784;2023-02-15T08:37:55;1020.25;;;6.62;59.03
48810;BME280;40070;47.322;18.784;2023-02-15T08:39:57;1020.29;;;6.66;58.76
48810;BME280;40070;47.322;18.784;2023-02-15T08:42:00;1020.29;;;6.43;59.45
48810;BME280;40070;47.322;18.784;2023-02-15T08:44:03;1020.26;;;6.54;58.67
48810;BME280;40070;47.322;18.784;2023-02-15T08:46:06;1020.25;;;6.40;59.10
48810;BME280;40070;47.322;18.784;2023-02-15T08:48:09;1020.25;;;6.39;59.32
48810;BME280;40070;47.322;18.784;2023-02-15T08:50:11;1020.23;;;6.49;59.07
48810;BME280;40070;47.322;18.784;2023-02-15T08:52:13;1020.23;;;6.82;58.45
48810;BME280;40070;47.322;18.784;2023-02-15T08:54:17;1020.26;;;7.17;57.62
48810;BME280;40070;47.322;18.784;2023-02-15T08:56:21;1020.13;;;7.27;56.99
48810;BME280;40070;47.322;18.784;2023-02-15T08:58:23;1020.14;;;7.42;56.13
48810;BME280;40070;47.322;18.784;2023-02-15T09:00:26;1020.15;;;7.44;56.55
48810;BME280;40070;47.322;18.784;2023-02-15T09:02:28;1020.13;;;7.65;55.69
48810;BME280;40070;47.322;18.784;2023-02-15T09:04:31;1020.10;;;7.73;55.74
48810;BME280;40070;47.322;18.784;2023-02-15T09:06:33;1020.10;;;7.33;56.36
48810;BME280;40070;47.322;18.784;2023-02-15T09:08:36;1020.08;;;7.45;55.97
48810;BME280;40070;47.322;18.784;2023-02-15T09:10:38;1020.09;;;7.98;54.95
48810;BME280;40070;47.322;18.784;2023-02-15T09:12:41;1020.07;;;8.19;54.04
48810;BME280;40070;47.322;18.784;2023-02-15T09:14:43;1020.04;;;7.94;54.45
48810;BME280;40070;47.322;18.784;2023-02-15T09:16:46;1020.04;;;7.87;54.59
48810;BME280;40070;47.322;18.784;2023-02-15T09:18:48;1020.09;;;7.81;55.09
48810;BME280;40070;47.322;18.784;2023-02-15T09:20:51;1020.10;;;7.98;54.29
48810;BME280;40070;47.322;18.784;2023-02-15T09:22:53;1020.11;;;7.92;54.52
48810;BME280;40070;47.322;18.784;2023-02-15T09:24:56;1020.07;;;8.23;54.25
48810;BME280;40070;47.322;18.784;2023-02-15T09:26:58;1020.13;;;8.07;54.74
48810;BME280;40070;47.322;18.784;2023-02-15T09:29:01;1020.11;;;8.41;53.96
48810;BME280;40070;47.322;18.784;2023-02-15T09:31:04;1020.11;;;8.60;53.69
48810;BME280;40070;47.322;18.784;2023-02-15T09:33:07;1020.09;;;8.85;53.14
48810;BME280;40070;47.322;18.784;2023-02-15T09:35:09;1020.15;;;8.49;53.46
48810;BME280;40070;47.322;18.784;2023-02-15T09:37:11;1020.13;;;8.82;52.98
48810;BME280;40070;47.322;18.784;2023-02-15T09:39:18;1020.16;;;8.46;53.69
48810;BME280;40070;47.322;18.784;2023-02-15T09:41:34;1020.10;;;8.72;53.24
48810;BME280;40070;47.322;18.784;2023-02-15T09:43:39;1020.04;;;9.04;52.58
48810;BME280;40070;47.322;18.784;2023-02-15T09:48:08;1020.03;;;9.05;53.06
48810;BME280;40070;47.322;18.784;2023-02-15T09:50:30;1020.02;;;8.97;52.94
48810;BME280;40070;47.322;18.784;2023-02-15T09:59:41;1019.93;;;9.38;52.38
48810;BME280;40070;47.322;18.784;2023-02-15T10:13:19;1019.82;;;10.04;49.42
48810;BME280;40070;47.322;18.784;2023-02-15T10:25:50;1019.74;;;10.26;50.48
48810;BME280;40070;47.322;18.784;2023-02-15T10:27:13;1019.72;;;10.37;49.66
48810;BME280;40070;47.322;18.784;2023-02-15T10:34:09;1019.57;;;10.80;49.36
48810;BME280;40070;47.322;18.784;2023-02-15T10:40:41;1019.56;;;10.93;48.47
48810;BME280;40070;47.322;18.784;2023-02-15T10:47:25;1019.51;;;11.56;46.04
48810;BME280;40070;47.322;18.784;2023-02-15T11:03:47;1019.39;;;12.08;45.10
48810;BME280;40070;47.322;18.784;2023-02-15T11:06:04;1019.35;;;12.62;43.97
48810;BME280;40070;47.322;18.784;2023-02-15T11:08:08;1019.31;;;12.62;44.42
48810;BME280;40070;47.322;18.784;2023-02-15T11:12:32;1019.33;;;12.47;43.95
48810;BME280;40070;47.322;18.784;2023-02-15T11:14:37;1019.24;;;12.29;43.89
48810;BME280;40070;47.322;18.784;2023-02-15T11:16:43;1019.23;;;12.33;44.01
48810;BME280;40070;47.322;18.784;2023-02-15T11:18:52;1019.16;;;12.59;43.75
48810;BME280;40070;47.322;18.784;2023-02-15T11:23:16;1019.07;;;12.60;43.74
48810;BME280;40070;47.322;18.784;2023-02-15T11:25:23;1019.00;;;13.03;43.09
48810;BME280;40070;47.322;18.784;2023-02-15T11:27:33;1019.01;;;12.90;43.43
48810;BME280;40070;47.322;18.784;2023-02-15T11:29:36;1019.08;;;12.90;43.20
48810;BME280;40070;47.322;18.784;2023-02-15T11:31:44;1019.03;;;12.65;43.62
48810;BME280;40070;47.322;18.784;2023-02-15T11:34:00;1019.00;;;12.56;44.18
48810;BME280;40070;47.322;18.784;2023-02-15T11:36:14;1018.90;;;12.57;43.89
48810;BME280;40070;47.322;18.784;2023-02-15T11:38:21;1018.87;;;13.08;43.29
48810;BME280;40070;47.322;18.784;2023-02-15T11:40:30;1018.83;;;13.07;42.78
48810;BME280;40070;47.322;18.784;2023-02-15T11:42:35;1018.79;;;13.12;42.30
48810;BME280;40070;47.322;18.784;2023-02-15T11:44:39;1018.78;;;13.37;42.14
48810;BME280;40070;47.322;18.784;2023-02-15T11:46:45;1018.77;;;13.07;42.63
48810;BME280;40070;47.322;18.784;2023-02-15T11:48:47;1018.78;;;12.90;43.21
48810;BME280;40070;47.322;18.784;2023-02-15T11:50:50;1018.73;;;12.94;42.96
48810;BME280;40070;47.322;18.784;2023-02-15T11:52:52;1018.73;;;12.96;42.50
48810;BME280;40070;47.322;18.784;2023-02-15T11:54:58;1018.68;;;13.14;42.17
48810;BME280;40070;47.322;18.784;2023-02-15T11:59:28;1018.63;;;13.05;42.13
48810;BME280;40070;47.322;18.784;2023-02-15T12:01:40;1018.64;;;13.25;41.48
48810;BME280;40070;47.322;18.784;2023-02-15T12:06:01;1018.56;;;13.30;41.05
48810;BME280;40070;47.322;18.784;2023-02-15T12:08:09;1018.56;;;13.38;41.32
48810;BME280;40070;47.322;18.784;2023-02-15T12:10:17;1018.50;;;13.99;40.05
48810;BME280;40070;47.322;18.784;2023-02-15T12:12:27;1018.50;;;14.14;39.89
48810;BME280;40070;47.322;18.784;2023-02-15T12:14:37;1018.53;;;13.81;40.43
48810;BME280;40070;47.322;18.784;2023-02-15T12:16:45;1018.46;;;14.44;38.80
48810;BME280;40070;47.322;18.784;2023-02-15T12:18:49;1018.49;;;14.17;39.35
48810;BME280;40070;47.322;18.784;2023-02-15T12:20:52;1018.39;;;14.26;39.45
48810;BME280;40070;47.322;18.784;2023-02-15T12:23:02;1018.45;;;14.35;39.72
48810;BME280;40070;47.322;18.784;2023-02-15T12:25:40;1018.48;;;13.92;39.87